sensor_id;sensor_type;location;lat;lon;timestamp;pressure;altitude;pressure_sealevel;temperature;humidity
35129;BME280;21301;43.626;10.580;2024-02-04T00:01:42;102663.91;;;9.69;75.62
35129;BME280;21301;43.626;10.580;2024-02-04T00:04:08;102667.88;;;9.79;75.35
35129;BME280;21301;43.626;10.580;2024-02-04T00:06:35;102657.16;;;10.05;75.54
35129;BME280;21301;43.626;10.580;2024-02-04T00:09:01;102656.53;;;10.20;75.39
35129;BME280;21301;43.626;10.580;2024-02-04T00:11:26;102652.16;;;10.19;74.75
35129;BME280;21301;43.626;10.580;2024-02-04T00:13:53;102654.75;;;10.20;74.76
35129;BME280;21301;43.626;10.580;2024-02-04T00:16:18;102651.75;;;10.30;74.66
35129;BME280;21301;43.626;10.580;2024-02-04T00:18:44;102643.75;;;10.31;74.67
35129;BME280;21301;43.626;10.580;2024-02-04T00:21:10;102643.31;;;10.42;74.41
35129;BME280;21301;43.626;10.580;2024-02-04T00:23:36;102637.63;;;10.51;74.33
35129;BME280;21301;43.626;10.580;2024-02-04T00:26:02;102639.81;;;10.60;74.83
35129;BME280;21301;43.626;10.580;2024-02-04T00:28:29;102642.81;;;10.72;74.49
35129;BME280;21301;43.626;10.580;2024-02-04T00:30:55;102637.56;;;10.72;73.90
35129;BME280;21301;43.626;10.580;2024-02-04T00:33:21;102642.25;;;10.84;74.32
35129;BME280;21301;43.626;10.580;2024-02-04T00:35:47;102641.84;;;10.93;74.65
35129;BME280;21301;43.626;10.580;2024-02-04T00:38:15;102630.88;;;10.25;74.72
35129;BME280;21301;43.626;10.580;2024-02-04T00:40:43;102633.63;;;10.42;74.37
35129;BME280;21301;43.626;10.580;2024-02-04T00:43:09;102632.59;;;10.47;74.83
35129;BME280;21301;43.626;10.580;2024-02-04T00:45:34;102632.38;;;10.51;74.67
35129;BME280;21301;43.626;10.580;2024-02-04T00:48:00;102629.44;;;10.57;74.56
35129;BME280;21301;43.626;10.580;2024-02-04T00:50:26;102629.31;;;10.60;74.12
35129;BME280;21301;43.626;10.580;2024-02-04T00:52:52;102627.22;;;10.48;74.38
35129;BME280;21301;43.626;10.580;2024-02-04T00:55:22;102626.31;;;10.49;74.81
35129;BME280;21301;43.626;10.580;2024-02-04T00:57:48;102626.69;;;10.41;74.04
35129;BME280;21301;43.626;10.580;2024-02-04T01:00:14;102624.97;;;10.20;74.16
35129;BME280;21301;43.626;10.580;2024-02-04T01:02:42;102617.28;;;10.15;73.84
35129;BME280;21301;43.626;10.580;2024-02-04T01:05:08;102625.72;;;10.22;74.26
35129;BME280;21301;43.626;10.580;2024-02-04T01:07:33;102615.44;;;9.97;74.38
35129;BME280;21301;43.626;10.580;2024-02-04T01:09:59;102620.19;;;9.89;75.07
35129;BME280;21301;43.626;10.580;2024-02-04T01:12:24;102619.91;;;9.95;75.04
35129;BME280;21301;43.626;10.580;2024-02-04T01:14:50;102621.50;;;9.99;74.93
35129;BME280;21301;43.626;10.580;2024-02-04T01:17:16;102631.97;;;9.78;75.18
35129;BME280;21301;43.626;10.580;2024-02-04T01:19:43;102628.19;;;9.86;75.31
35129;BME280;21301;43.626;10.580;2024-02-04T01:22:08;102624.81;;;9.62;75.81
35129;BME280;21301;43.626;10.580;2024-02-04T01:24:34;102635.00;;;9.27;76.65
35129;BME280;21301;43.626;10.580;2024-02-04T01:27:00;102629.25;;;9.39;76.85
35129;BME280;21301;43.626;10.580;2024-02-04T01:29:25;102628.41;;;9.59;77.01
35129;BME280;21301;43.626;10.580;2024-02-04T01:31:52;102625.34;;;9.70;76.80
35129;BME280;21301;43.626;10.580;2024-02-04T01:34:18;102629.72;;;9.91;76.87
35129;BME280;21301;43.626;10.580;2024-02-04T01:36:43;102622.16;;;10.04;76.30
35129;BME280;21301;43.626;10.580;2024-02-04T01:39:09;102623.78;;;10.07;76.50
35129;BME280;21301;43.626;10.580;2024-02-04T01:41:35;102610.84;;;10.02;76.56
35129;BME280;21301;43.626;10.580;2024-02-04T01:44:01;102613.53;;;10.00;76.31
35129;BME280;21301;43.626;10.580;2024-02-04T01:46:27;102610.63;;;10.07;76.44
35129;BME280;21301;43.626;10.580;2024-02-04T01:48:53;102604.84;;;10.19;76.26
35129;BME280;21301;43.626;10.580;2024-02-04T01:51:20;102608.97;;;10.24;76.82
35129;BME280;21301;43.626;10.580;2024-02-04T01:53:47;102606.47;;;10.21;76.61
35129;BME280;21301;43.626;10.580;2024-02-04T01:56:14;102611.81;;;10.20;76.33
35129;BME280;21301;43.626;10.580;2024-02-04T01:58:42;102609.25;;;10.18;76.46
35129;BME280;21301;43.626;10.580;2024-02-04T02:01:09;102604.63;;;10.23;76.33
35129;BME280;21301;43.626;10.580;2024-02-04T02:03:38;102603.00;;;10.21;76.23
35129;BME280;21301;43.626;10.580;2024-02-04T02:06:05;102599.53;;;10.20;76.07
35129;BME280;21301;43.626;10.580;2024-02-04T02:08:32;102599.72;;;10.16;76.54
35129;BME280;21301;43.626;10.580;2024-02-04T02:11:05;102598.09;;;10.13;76.24
35129;BME280;21301;43.626;10.580;2024-02-04T02:13:35;102599.13;;;10.09;76.13
35129;BME280;21301;43.626;10.580;2024-02-04T02:16:11;102595.34;;;9.96;76.44
35129;BME280;21301;43.626;10.580;2024-02-04T02:18:49;102585.88;;;9.92;76.61
35129;BME280;21301;43.626;10.580;2024-02-04T02:21:50;102590.59;;;9.84;76.46
35129;BME280;21301;43.626;10.580;2024-02-04T02:26:50;102600.84;;;9.90;76.65
35129;BME280;21301;43.626;10.580;2024-02-04T02:29:16;102603.88;;;9.80;76.33
35129;BME280;21301;43.626;10.580;2024-02-04T02:31:42;102597.50;;;9.66;76.34
35129;BME280;21301;43.626;10.580;2024-02-04T02:34:09;102592.44;;;9.61;76.68
35129;BME280;21301;43.626;10.580;2024-02-04T02:37:03;102581.53;;;9.50;76.76
35129;BME280;21301;43.626;10.580;2024-02-04T02:39:41;102575.78;;;9.40;76.78
35129;BME280;21301;43.626;10.580;2024-02-04T02:42:10;102577.22;;;9.27;76.53
35129;BME280;21301;43.626;10.580;2024-02-04T02:44:38;102594.94;;;9.22;76.89
35129;BME280;21301;43.626;10.580;2024-02-04T02:47:06;102596.09;;;9.14;76.90
35129;BME280;21301;43.626;10.580;2024-02-04T02:49:32;102591.72;;;9.15;77.20
35129;BME280;21301;43.626;10.580;2024-02-04T02:51:59;102584.69;;;9.15;77.49
35129;BME280;21301;43.626;10.580;2024-02-04T02:54:26;102591.66;;;9.16;77.32
35129;BME280;21301;43.626;10.580;2024-02-04T02:56:51;102589.13;;;9.13;77.38
35129;BME280;21301;43.626;10.580;2024-02-04T02:59:17;102586.78;;;9.07;77.52
35129;BME280;21301;43.626;10.580;2024-02-04T03:01:43;102584.19;;;9.06;78.04
35129;BME280;21301;43.626;10.580;2024-02-04T03:04:08;102583.69;;;9.18;77.71
35129;BME280;21301;43.626;10.580;2024-02-04T03:06:34;102579.75;;;9.08;78.12
35129;BME280;21301;43.626;10.580;2024-02-04T03:09:00;102589.72;;;9.00;77.77
35129;BME280;21301;43.626;10.580;2024-02-04T03:11:26;102599.44;;;8.96;78.51
35129;BME280;21301;43.626;10.580;2024-02-04T03:13:51;102603.78;;;8.97;78.38
35129;BME280;21301;43.626;10.580;2024-02-04T03:16:17;102603.84;;;8.95;78.80
35129;BME280;21301;43.626;10.580;2024-02-04T03:18:43;102598.03;;;8.87;78.82
35129;BME280;21301;43.626;10.580;2024-02-04T03:21:16;102589.00;;;8.72;79.38
35129;BME280;21301;43.626;10.580;2024-02-04T03:23:42;102584.66;;;8.71;79.42
35129;BME280;21301;43.626;10.580;2024-02-04T03:26:16;102587.50;;;8.65;78.90
35129;BME280;21301;43.626;10.580;2024-02-04T03:28:44;102587.22;;;8.73;79.34
35129;BME280;21301;43.626;10.580;2024-02-04T03:31:10;102576.84;;;8.70;79.25
35129;BME280;21301;43.626;10.580;2024-02-04T03:33:36;102580.78;;;8.82;79.62
35129;BME280;21301;43.626;10.580;2024-02-04T03:36:01;102584.81;;;8.90;78.74
35129;BME280;21301;43.626;10.580;2024-02-04T03:38:27;102573.88;;;9.01;79.06
35129;BME280;21301;43.626;10.580;2024-02-04T03:40:54;102572.53;;;8.45;79.05
35129;BME280;21301;43.626;10.580;2024-02-04T03:43:21;102579.66;;;8.42;79.10
35129;BME280;21301;43.626;10.580;2024-02-04T03:45:46;102566.31;;;8.71;79.33
35129;BME280;21301;43.626;10.580;2024-02-04T03:48:12;102563.56;;;8.96;78.68
35129;BME280;21301;43.626;10.580;2024-02-04T03:50:38;102561.88;;;8.50;79.40
35129;BME280;21301;43.626;10.580;2024-02-04T03:53:03;102556.63;;;8.50;79.29
35129;BME280;21301;43.626;10.580;2024-02-04T03:55:29;102534.50;;;8.57;78.56
35129;BME280;21301;43.626;10.580;2024-02-04T03:57:55;102539.94;;;8.74;79.00
35129;BME280;21301;43.626;10.580;2024-02-04T04:00:23;102533.19;;;8.69;79.11
35129;BME280;21301;43.626;10.580;2024-02-04T04:02:49;102541.72;;;8.52;78.86
35129;BME280;21301;43.626;10.580;2024-02-04T04:05:16;102545.22;;;8.51;78.47
35129;BME280;21301;43.626;10.580;2024-02-04T04:07:42;102548.44;;;8.59;78.73
35129;BME280;21301;43.626;10.580;2024-02-04T04:10:10;102541.72;;;8.74;78.33
35129;BME280;21301;43.626;10.580;2024-02-04T04:12:38;102535.00;;;8.67;78.16
35129;BME280;21301;43.626;10.580;2024-02-04T04:15:04;102543.22;;;8.58;78.18
35129;BME280;21301;43.626;10.580;2024-02-04T04:17:30;102538.91;;;8.57;77.97
35129;BME280;21301;43.626;10.580;2024-02-04T04:19:56;102534.38;;;8.60;77.94
35129;BME280;21301;43.626;10.580;2024-02-04T04:22:24;102535.38;;;8.58;77.90
35129;BME280;21301;43.626;10.580;2024-02-04T04:24:49;102536.63;;;8.47;77.99
35129;BME280;21301;43.626;10.580;2024-02-04T04:27:15;102539.19;;;8.49;77.46
35129;BME280;21301;43.626;10.580;2024-02-04T04:29:40;102536.69;;;8.46;77.59
35129;BME280;21301;43.626;10.580;2024-02-04T04:32:07;102536.97;;;8.62;77.58
35129;BME280;21301;43.626;10.580;2024-02-04T04:34:33;102544.03;;;8.60;78.31
35129;BME280;21301;43.626;10.580;2024-02-04T04:36:59;102543.22;;;8.58;77.75
35129;BME280;21301;43.626;10.580;2024-02-04T04:39:25;102535.91;;;8.66;77.72
35129;BME280;21301;43.626;10.580;2024-02-04T04:41:52;102532.56;;;8.84;77.85
35129;BME280;21301;43.626;10.580;2024-02-04T04:44:18;102527.00;;;8.92;78.37
35129;BME280;21301;43.626;10.580;2024-02-04T04:46:44;102529.41;;;8.98;77.71
35129;BME280;21301;43.626;10.580;2024-02-04T04:49:10;102525.94;;;8.98;77.97
35129;BME280;21301;43.626;10.580;2024-02-04T04:51:35;102517.19;;;8.97;78.32
35129;BME280;21301;43.626;10.580;2024-02-04T04:54:01;102513.13;;;8.90;77.99
35129;BME280;21301;43.626;10.580;2024-02-04T04:56:27;102512.34;;;8.88;78.15
35129;BME280;21301;43.626;10.580;2024-02-04T04:58:55;102507.09;;;8.88;77.61
35129;BME280;21301;43.626;10.580;2024-02-04T05:01:21;102507.19;;;8.63;78.60
35129;BME280;21301;43.626;10.580;2024-02-04T05:03:48;102501.31;;;8.56;78.17
35129;BME280;21301;43.626;10.580;2024-02-04T05:06:13;102500.38;;;8.59;78.19
35129;BME280;21301;43.626;10.580;2024-02-04T05:08:39;102507.44;;;8.57;78.39
35129;BME280;21301;43.626;10.580;2024-02-04T05:11:04;102517.63;;;8.64;78.18
35129;BME280;21301;43.626;10.580;2024-02-04T05:13:30;102525.53;;;8.39;78.37
35129;BME280;21301;43.626;10.580;2024-02-04T05:15:57;102522.31;;;8.32;78.71
35129;BME280;21301;43.626;10.580;2024-02-04T05:18:22;102524.56;;;8.43;79.02
35129;BME280;21301;43.626;10.580;2024-02-04T05:20:52;102499.31;;;8.63;79.32
35129;BME280;21301;43.626;10.580;2024-02-04T05:23:17;102493.19;;;8.64;79.59
35129;BME280;21301;43.626;10.580;2024-02-04T05:25:43;102498.59;;;8.59;79.62
35129;BME280;21301;43.626;10.580;2024-02-04T05:28:09;102503.09;;;8.56;79.47
35129;BME280;21301;43.626;10.580;2024-02-04T05:30:34;102509.13;;;8.58;79.38
35129;BME280;21301;43.626;10.580;2024-02-04T05:33:01;102508.25;;;8.59;79.58
35129;BME280;21301;43.626;10.580;2024-02-04T05:35:27;102517.31;;;8.50;79.33
35129;BME280;21301;43.626;10.580;2024-02-04T05:37:52;102515.97;;;8.40;79.77
35129;BME280;21301;43.626;10.580;2024-02-04T05:40:18;102516.56;;;8.46;79.42
35129;BME280;21301;43.626;10.580;2024-02-04T05:42:45;102514.72;;;8.48;79.80
35129;BME280;21301;43.626;10.580;2024-02-04T05:45:11;102517.25;;;8.51;80.05
35129;BME280;21301;43.626;10.580;2024-02-04T05:47:37;102505.53;;;8.60;80.11
35129;BME280;21301;43.626;10.580;2024-02-04T05:50:03;102501.94;;;8.63;80.24
35129;BME280;21301;43.626;10.580;2024-02-04T05:52:30;102502.50;;;8.71;80.80
35129;BME280;21301;43.626;10.580;2024-02-04T05:54:55;102495.22;;;8.56;80.52
35129;BME280;21301;43.626;10.580;2024-02-04T05:57:21;102485.53;;;8.58;80.12
35129;BME280;21301;43.626;10.580;2024-02-04T05:59:51;102470.25;;;8.69;80.65
35129;BME280;21301;43.626;10.580;2024-02-04T06:02:19;102477.94;;;8.51;80.88
35129;BME280;21301;43.626;10.580;2024-02-04T06:04:47;102468.13;;;8.57;80.64
35129;BME280;21301;43.626;10.580;2024-02-04T06:07:13;102446.56;;;8.48;80.39
35129;BME280;21301;43.626;10.580;2024-02-04T06:09:43;102445.91;;;8.43;80.12
35129;BME280;21301;43.626;10.580;2024-02-04T06:12:12;102453.63;;;8.46;80.47
35129;BME280;21301;43.626;10.580;2024-02-04T06:14:38;102479.13;;;8.43;80.71
35129;BME280;21301;43.626;10.580;2024-02-04T06:17:06;102502.16;;;8.35;80.80
35129;BME280;21301;43.626;10.580;2024-02-04T06:19:34;102527.44;;;8.36;81.06
35129;BME280;21301;43.626;10.580;2024-02-04T06:22:00;102521.94;;;8.43;81.02
35129;BME280;21301;43.626;10.580;2024-02-04T06:24:26;102519.00;;;8.51;81.05
35129;BME280;21301;43.626;10.580;2024-02-04T06:26:51;102529.31;;;8.56;81.13
35129;BME280;21301;43.626;10.580;2024-02-04T06:29:18;102545.06;;;8.56;81.39
35129;BME280;21301;43.626;10.580;2024-02-04T06:31:44;102557.34;;;8.53;80.97
35129;BME280;21301;43.626;10.580;2024-02-04T06:34:11;102575.00;;;8.50;81.53
35129;BME280;21301;43.626;10.580;2024-02-04T06:36:37;102590.78;;;8.48;81.71
35129;BME280;21301;43.626;10.580;2024-02-04T06:39:02;102597.66;;;8.51;81.18
35129;BME280;21301;43.626;10.580;2024-02-04T06:41:29;102592.38;;;8.52;81.25
35129;BME280;21301;43.626;10.580;2024-02-04T06:43:55;102583.53;;;8.55;81.69
35129;BME280;21301;43.626;10.580;2024-02-04T06:46:27;102593.31;;;8.51;81.59
35129;BME280;21301;43.626;10.580;2024-02-04T06:48:53;102602.69;;;8.57;81.70
35129;BME280;21301;43.626;10.580;2024-02-04T06:51:19;102600.13;;;8.56;81.53
35129;BME280;21301;43.626;10.580;2024-02-04T06:53:45;102594.16;;;8.52;81.31
35129;BME280;21301;43.626;10.580;2024-02-04T06:56:11;102598.97;;;8.63;81.25
35129;BME280;21301;43.626;10.580;2024-02-04T06:58:38;102591.94;;;8.63;81.74
35129;BME280;21301;43.626;10.580;2024-02-04T07:01:04;102590.88;;;8.69;81.18
35129;BME280;21301;43.626;10.580;2024-02-04T07:03:33;102597.94;;;8.90;81.85
35129;BME280;21301;43.626;10.580;2024-02-04T07:05:59;102596.69;;;8.99;81.34
35129;BME280;21301;43.626;10.580;2024-02-04T07:08:25;102600.91;;;9.03;81.27
35129;BME280;21301;43.626;10.580;2024-02-04T07:10:55;102597.38;;;9.04;80.92
35129;BME280;21301;43.626;10.580;2024-02-04T07:13:24;102592.13;;;9.04;80.82
35129;BME280;21301;43.626;10.580;2024-02-04T07:15:49;102592.44;;;8.96;80.75
35129;BME280;21301;43.626;10.580;2024-02-04T07:18:15;102599.03;;;9.07;80.90
35129;BME280;21301;43.626;10.580;2024-02-04T07:20:42;102593.94;;;8.80;81.06
35129;BME280;21301;43.626;10.580;2024-02-04T07:23:09;102590.47;;;9.02;81.10
35129;BME280;21301;43.626;10.580;2024-02-04T07:25:34;102588.22;;;9.14;80.85
35129;BME280;21301;43.626;10.580;2024-02-04T07:28:00;102588.06;;;9.19;81.17
35129;BME280;21301;43.626;10.580;2024-02-04T07:30:26;102569.69;;;9.19;80.71
35129;BME280;21301;43.626;10.580;2024-02-04T07:32:51;102577.22;;;9.27;80.33
35129;BME280;21301;43.626;10.580;2024-02-04T07:35:17;102589.63;;;9.23;80.57
35129;BME280;21301;43.626;10.580;2024-02-04T07:37:42;102590.84;;;9.36;80.88
35129;BME280;21301;43.626;10.580;2024-02-04T07:40:10;102607.13;;;9.45;80.67
35129;BME280;21301;43.626;10.580;2024-02-04T07:42:36;102607.72;;;9.51;80.44
35129;BME280;21301;43.626;10.580;2024-02-04T07:45:02;102605.09;;;9.51;80.29
35129;BME280;21301;43.626;10.580;2024-02-04T07:47:34;102598.22;;;9.49;80.34
35129;BME280;21301;43.626;10.580;2024-02-04T07:50:00;102597.84;;;9.58;80.19
35129;BME280;21301;43.626;10.580;2024-02-04T07:52:25;102592.06;;;9.70;80.16
35129;BME280;21301;43.626;10.580;2024-02-04T07:54:51;102591.59;;;9.81;80.01
35129;BME280;21301;43.626;10.580;2024-02-04T07:57:16;102595.25;;;9.97;79.65
35129;BME280;21301;43.626;10.580;2024-02-04T07:59:42;102605.88;;;9.96;79.87
35129;BME280;21301;43.626;10.580;2024-02-04T08:02:09;102601.44;;;9.96;79.77
35129;BME280;21301;43.626;10.580;2024-02-04T08:04:36;102607.81;;;9.91;80.14
35129;BME280;21301;43.626;10.580;2024-02-04T08:07:02;102605.63;;;10.00;79.71
35129;BME280;21301;43.626;10.580;2024-02-04T08:09:27;102608.00;;;10.07;79.30
35129;BME280;21301;43.626;10.580;2024-02-04T08:11:53;102615.84;;;10.08;80.08
35129;BME280;21301;43.626;10.580;2024-02-04T08:14:18;102629.50;;;10.16;79.66
35129;BME280;21301;43.626;10.580;2024-02-04T08:16:44;102632.84;;;10.20;79.29
35129;BME280;21301;43.626;10.580;2024-02-04T08:19:12;102627.78;;;10.15;79.82
35129;BME280;21301;43.626;10.580;2024-02-04T08:21:39;102634.69;;;10.18;79.64
35129;BME280;21301;43.626;10.580;2024-02-04T08:24:05;102646.56;;;10.27;78.90
35129;BME280;21301;43.626;10.580;2024-02-04T08:26:31;102652.25;;;10.17;79.02
35129;BME280;21301;43.626;10.580;2024-02-04T08:28:56;102655.31;;;10.07;79.44
35129;BME280;21301;43.626;10.580;2024-02-04T08:31:23;102659.88;;;10.03;79.09
35129;BME280;21301;43.626;10.580;2024-02-04T08:33:49;102665.88;;;10.05;79.64
35129;BME280;21301;43.626;10.580;2024-02-04T08:36:15;102659.28;;;9.96;79.38
35129;BME280;21301;43.626;10.580;2024-02-04T08:38:41;102653.47;;;9.88;79.56
35129;BME280;21301;43.626;10.580;2024-02-04T08:41:08;102650.78;;;9.90;79.42
35129;BME280;21301;43.626;10.580;2024-02-04T08:43:35;102641.06;;;9.92;79.65
35129;BME280;21301;43.626;10.580;2024-02-04T08:46:00;102647.03;;;9.95;79.36
35129;BME280;21301;43.626;10.580;2024-02-04T08:48:26;102640.59;;;10.02;79.68
35129;BME280;21301;43.626;10.580;2024-02-04T08:50:54;102631.41;;;10.13;79.07
35129;BME280;21301;43.626;10.580;2024-02-04T08:53:22;102636.88;;;10.08;79.17
35129;BME280;21301;43.626;10.580;2024-02-04T08:55:49;102623.59;;;10.11;79.26
35129;BME280;21301;43.626;10.580;2024-02-04T08:58:15;102627.44;;;10.23;78.93
35129;BME280;21301;43.626;10.580;2024-02-04T09:00:45;102628.00;;;10.31;78.72
35129;BME280;21301;43.626;10.580;2024-02-04T09:03:11;102632.19;;;10.35;78.88
35129;BME280;21301;43.626;10.580;2024-02-04T09:05:37;102643.94;;;10.47;78.95
35129;BME280;21301;43.626;10.580;2024-02-04T09:08:04;102642.75;;;10.54;78.67
35129;BME280;21301;43.626;10.580;2024-02-04T09:10:30;102640.69;;;10.61;78.63
35129;BME280;21301;43.626;10.580;2024-02-04T09:12:55;102647.44;;;10.66;78.84
35129;BME280;21301;43.626;10.580;2024-02-04T09:15:22;102656.97;;;10.69;77.86
35129;BME280;21301;43.626;10.580;2024-02-04T09:17:48;102664.94;;;10.68;78.58
35129;BME280;21301;43.626;10.580;2024-02-04T09:20:13;102666.88;;;10.64;78.63
35129;BME280;21301;43.626;10.580;2024-02-04T09:22:40;102664.03;;;10.69;78.44
35129;BME280;21301;43.626;10.580;2024-02-04T09:25:06;102665.78;;;11.06;77.88
35129;BME280;21301;43.626;10.580;2024-02-04T09:27:32;102664.81;;;11.99;79.79
35129;BME280;21301;43.626;10.580;2024-02-04T09:29:57;102662.25;;;12.32;79.34
35129;BME280;21301;43.626;10.580;2024-02-04T09:32:24;102668.84;;;12.06;79.61
35129;BME280;21301;43.626;10.580;2024-02-04T09:34:49;102662.50;;;11.92;79.03
35129;BME280;21301;43.626;10.580;2024-02-04T09:37:15;102651.63;;;12.16;79.34
35129;BME280;21301;43.626;10.580;2024-02-04T09:39:41;102650.53;;;12.20;78.37
35129;BME280;21301;43.626;10.580;2024-02-04T09:42:07;102662.38;;;12.46;77.81
35129;BME280;21301;43.626;10.580;2024-02-04T09:44:33;102660.97;;;12.39;77.82
35129;BME280;21301;43.626;10.580;2024-02-04T09:46:58;102656.78;;;12.35;77.19
35129;BME280;21301;43.626;10.580;2024-02-04T09:49:27;102652.28;;;12.37;76.75
35129;BME280;21301;43.626;10.580;2024-02-04T09:51:56;102671.47;;;12.23;76.21
35129;BME280;21301;43.626;10.580;2024-02-04T09:54:25;102668.84;;;12.23;75.83
35129;BME280;21301;43.626;10.580;2024-02-04T09:56:52;102664.81;;;12.16;76.11
35129;BME280;21301;43.626;10.580;2024-02-04T09:59:19;102664.44;;;12.06;75.26
35129;BME280;21301;43.626;10.580;2024-02-04T10:01:45;102671.13;;;11.96;75.93
35129;BME280;21301;43.626;10.580;2024-02-04T10:04:12;102673.63;;;11.80;75.12
35129;BME280;21301;43.626;10.580;2024-02-04T10:06:37;102673.63;;;11.26;75.83
35129;BME280;21301;43.626;10.580;2024-02-04T10:09:03;102672.47;;;10.94;76.86
35129;BME280;21301;43.626;10.580;2024-02-04T10:11:29;102668.94;;;10.16;77.16
35129;BME280;21301;43.626;10.580;2024-02-04T10:13:55;102667.22;;;10.15;77.46
35129;BME280;21301;43.626;10.580;2024-02-04T10:16:21;102665.88;;;10.05;78.08
35129;BME280;21301;43.626;10.580;2024-02-04T10:18:48;102659.88;;;10.03;78.25
35129;BME280;21301;43.626;10.580;2024-02-04T10:21:21;102665.44;;;10.16;77.96
35129;BME280;21301;43.626;10.580;2024-02-04T10:23:50;102664.31;;;10.21;77.66
35129;BME280;21301;43.626;10.580;2024-02-04T10:26:18;102648.03;;;10.34;77.77
35129;BME280;21301;43.626;10.580;2024-02-04T10:28:47;102663.25;;;10.05;77.81
35129;BME280;21301;43.626;10.580;2024-02-04T10:31:13;102668.00;;;9.97;78.21
35129;BME280;21301;43.626;10.580;2024-02-04T10:33:40;102671.03;;;10.08;78.69
35129;BME280;21301;43.626;10.580;2024-02-04T10:36:07;102669.44;;;10.24;78.49
35129;BME280;21301;43.626;10.580;2024-02-04T10:38:33;102670.31;;;10.25;77.80
35129;BME280;21301;43.626;10.580;2024-02-04T10:41:02;102674.53;;;10.29;78.17
35129;BME280;21301;43.626;10.580;2024-02-04T10:43:32;102674.03;;;10.19;78.62
35129;BME280;21301;43.626;10.580;2024-02-04T10:46:13;102677.41;;;10.23;78.42
35129;BME280;21301;43.626;10.580;2024-02-04T10:48:41;102659.84;;;10.23;78.63
35129;BME280;21301;43.626;10.580;2024-02-04T10:51:15;102660.31;;;9.92;78.92
35129;BME280;21301;43.626;10.580;2024-02-04T10:53:45;102661.25;;;9.91;79.53
35129;BME280;21301;43.626;10.580;2024-02-04T10:56:37;102660.78;;;10.02;79.31
35129;BME280;21301;43.626;10.580;2024-02-04T10:59:06;102657.41;;;10.19;79.31
35129;BME280;21301;43.626;10.580;2024-02-04T11:01:33;102661.16;;;10.54;80.11
35129;BME280;21301;43.626;10.580;2024-02-04T11:03:59;102654.63;;;10.82;79.44
35129;BME280;21301;43.626;10.580;2024-02-04T11:06:28;102650.00;;;11.06;78.49
35129;BME280;21301;43.626;10.580;2024-02-04T11:08:54;102650.75;;;11.27;78.85
35129;BME280;21301;43.626;10.580;2024-02-04T11:11:21;102641.19;;;11.43;78.40
35129;BME280;21301;43.626;10.580;2024-02-04T11:13:54;102625.84;;;11.51;77.63
35129;BME280;21301;43.626;10.580;2024-02-04T11:27:19;102629.59;;;12.00;76.67
35129;BME280;21301;43.626;10.580;2024-02-04T11:29:46;102625.66;;;12.08;75.93
35129;BME280;21301;43.626;10.580;2024-02-04T11:32:13;102626.91;;;12.01;76.25
35129;BME280;21301;43.626;10.580;2024-02-04T11:34:40;102614.78;;;12.14;75.73
35129;BME280;21301;43.626;10.580;2024-02-04T11:37:18;102607.97;;;12.10;76.13
35129;BME280;21301;43.626;10.580;2024-02-04T11:39:53;102599.34;;;12.24;75.60
35129;BME280;21301;43.626;10.580;2024-02-04T11:42:22;102607.31;;;12.23;75.67
35129;BME280;21301;43.626;10.580;2024-02-04T11:44:48;102605.72;;;12.36;75.60
35129;BME280;21301;43.626;10.580;2024-02-04T11:47:23;102606.19;;;12.11;75.30
35129;BME280;21301;43.626;10.580;2024-02-04T11:49:57;102608.34;;;12.20;74.85
35129;BME280;21301;43.626;10.580;2024-02-04T11:52:23;102599.47;;;12.21;74.94
35129;BME280;21301;43.626;10.580;2024-02-04T11:54:49;102601.06;;;12.41;75.33
35129;BME280;21301;43.626;10.580;2024-02-04T11:57:15;102596.53;;;12.43;74.51
35129;BME280;21301;43.626;10.580;2024-02-04T11:59:42;102593.00;;;12.44;74.63
35129;BME280;21301;43.626;10.580;2024-02-04T12:02:09;102590.66;;;12.38;74.87
35129;BME280;21301;43.626;10.580;2024-02-04T12:04:35;102584.63;;;11.68;74.39
35129;BME280;21301;43.626;10.580;2024-02-04T12:07:01;102592.31;;;11.38;75.88
35129;BME280;21301;43.626;10.580;2024-02-04T12:09:28;102584.09;;;11.44;76.33
35129;BME280;21301;43.626;10.580;2024-02-04T12:11:54;102580.78;;;11.40;76.19
35129;BME280;21301;43.626;10.580;2024-02-04T12:14:20;102588.63;;;10.86;76.83
35129;BME280;21301;43.626;10.580;2024-02-04T12:16:46;102584.53;;;11.17;77.01
35129;BME280;21301;43.626;10.580;2024-02-04T12:19:12;102579.84;;;11.05;76.86
35129;BME280;21301;43.626;10.580;2024-02-04T12:21:37;102583.16;;;10.91;77.28
35129;BME280;21301;43.626;10.580;2024-02-04T12:24:04;102579.84;;;11.05;77.73
35129;BME280;21301;43.626;10.580;2024-02-04T12:26:31;102583.69;;;11.17;77.10
35129;BME280;21301;43.626;10.580;2024-02-04T12:28:58;102585.16;;;11.22;76.64
35129;BME280;21301;43.626;10.580;2024-02-04T12:31:26;102580.59;;;11.26;76.95
35129;BME280;21301;43.626;10.580;2024-02-04T12:33:58;102575.56;;;11.39;76.26
35129;BME280;21301;43.626;10.580;2024-02-04T12:36:29;102575.34;;;11.26;76.73
35129;BME280;21301;43.626;10.580;2024-02-04T12:39:05;102564.22;;;11.02;77.40
35129;BME280;21301;43.626;10.580;2024-02-04T12:41:36;102558.22;;;11.52;77.66
35129;BME280;21301;43.626;10.580;2024-02-04T12:44:04;102552.06;;;11.86;77.35
35129;BME280;21301;43.626;10.580;2024-02-04T12:46:35;102547.47;;;12.07;76.68
35129;BME280;21301;43.626;10.580;2024-02-04T12:49:02;102544.47;;;11.98;76.37
35129;BME280;21301;43.626;10.580;2024-02-04T12:51:34;102548.34;;;12.08;76.99
35129;BME280;21301;43.626;10.580;2024-02-04T12:54:10;102556.19;;;12.25;76.13
35129;BME280;21301;43.626;10.580;2024-02-04T12:56:48;102552.81;;;12.55;76.20
35129;BME280;21301;43.626;10.580;2024-02-04T12:59:33;102548.81;;;12.64;75.29